Time;durP1;ratioP1;P1;durP2;ratioP2;P2;SDS_P1;SDS_P2;PMS_P1;PMS_P2;Temp;Humidity;BMP_temperature;BMP_pressure;BME280_temperature;BME280_humidity;BME280_pressure;Samples;Min_cycle;Max_cycle;Signal;HPM_P1;HPM_P2
2021/05/25 00:00:41;;;;;;;6.30;2.90;;;;;;;16.25;84.22;97676.56;4928514;29;20447;-61
2021/05/25 00:03:08;;;;;;;5.88;3.90;;;;;;;16.25;84.22;97668.19;4928279;29;20024;-62
2021/05/25 00:05:34;;;;;;;6.03;3.50;;;;;;;15.97;85.28;97650.47;4928140;29;20047;-60
2021/05/25 00:08:00;;;;;;;5.50;3.42;;;;;;;16.08;85.54;97660.50;4928480;29;20051;-61
2021/05/25 00:10:28;;;;;;;4.70;3.30;;;;;;;16.10;85.45;97663.72;4927869;29;20626;-60
2021/05/25 00:12:54;;;;;;;4.40;3.67;;;;;;;15.75;85.12;97683.06;4928569;29;20043;-60
2021/05/25 00:15:22;;;;;;;5.53;3.60;;;;;;;15.94;84.76;97652.06;4928475;29;20043;-61
2021/05/25 00:17:48;;;;;;;7.53;3.60;;;;;;;15.97;85.38;97670.03;4928514;29;20507;-60
2021/05/25 00:20:16;;;;;;;5.82;3.67;;;;;;;15.42;85.96;97585.50;4958658;28;20050;-61
2021/05/25 00:22:43;;;;;;;4.93;3.60;;;;;;;15.92;85.96;97727.09;4928207;29;20054;-60
2021/05/25 00:25:11;;;;;;;5.53;3.85;;;;;;;15.93;85.52;97661.63;4927470;29;20888;-60
2021/05/25 00:27:38;;;;;;;5.97;3.70;;;;;;;15.95;85.76;97658.47;4928185;29;20028;-60
2021/05/25 00:30:05;;;;;;;6.57;3.53;;;;;;;13.35;85.72;97266.78;4926570;29;20043;-61
2021/05/25 00:32:31;;;;;;;5.55;3.10;;;;;;;15.81;86.18;97653.56;4928101;29;20048;-61
2021/05/25 00:34:56;;;;;;;4.50;3.38;;;;;;;15.78;86.54;97665.53;4928174;29;20441;-62
2021/05/25 00:37:22;;;;;;;5.18;3.08;;;;;;;15.54;86.13;97609.50;4927852;29;20592;-61
2021/05/25 00:39:47;;;;;;;3.22;2.60;;;;;;;15.79;86.31;97650.34;4927818;29;20039;-62
2021/05/25 00:42:13;;;;;;;6.40;2.88;;;;;;;15.83;86.38;97645.59;4927764;29;20063;-62
2021/05/25 00:44:38;;;;;;;4.15;3.25;;;;;;;15.56;86.08;97596.75;4927566;29;20629;-61
2021/05/25 00:47:04;;;;;;;5.05;3.20;;;;;;;15.79;85.56;97622.41;4927485;29;20028;-61
2021/05/25 00:49:30;;;;;;;3.67;3.35;;;;;;;15.30;86.25;97566.22;4927578;29;20099;-62
2021/05/25 00:51:56;;;;;;;4.80;3.22;;;;;;;15.86;85.07;97633.66;4927327;29;20059;-61
2021/05/25 00:54:21;;;;;;;6.47;3.17;;;;;;;15.60;85.78;97602.38;4957890;28;20093;-61
2021/05/25 00:56:47;;;;;;;6.35;3.60;;;;;;;15.30;85.37;97554.28;4927346;29;20031;-61
2021/05/25 00:59:12;;;;;;;4.63;2.97;;;;;;;15.64;85.22;97608.75;4925952;29;20037;-60
2021/05/25 01:01:38;;;;;;;5.28;3.05;;;;;;;15.70;85.05;97635.94;4927333;29;20042;-60
2021/05/25 01:04:04;;;;;;;4.55;3.10;;;;;;;15.63;85.65;97629.50;4958168;28;20051;-60
2021/05/25 01:06:30;;;;;;;7.03;3.50;;;;;;;15.65;86.50;97632.72;4925442;29;20395;-60
2021/05/25 01:08:59;;;;;;;4.03;2.90;;;;;;;15.48;86.07;97595.09;4957624;28;20031;-61
2021/05/25 01:11:25;;;;;;;3.75;2.85;;;;;;;15.70;86.02;97624.75;4926980;29;20047;-60
2021/05/25 01:13:56;;;;;;;4.47;3.17;;;;;;;15.64;86.21;97619.94;4925314;29;20043;-60
2021/05/25 01:16:25;;;;;;;5.05;3.25;;;;;;;15.75;85.68;97631.97;4957303;28;20043;-60
2021/05/25 01:18:51;;;;;;;4.30;3.00;;;;;;;15.58;85.21;97599.97;4926973;29;20134;-60
2021/05/25 01:21:17;;;;;;;6.40;3.15;;;;;;;15.10;85.71;97556.50;4926746;29;20491;-59
2021/05/25 01:23:42;;;;;;;4.97;3.08;;;;;;;15.70;85.07;97619.19;4927404;29;20498;-60
2021/05/25 01:26:09;;;;;;;3.53;3.00;;;;;;;15.61;85.97;97613.13;4926779;29;20506;-60
2021/05/25 01:28:36;;;;;;;4.75;3.10;;;;;;;15.66;85.46;97623.94;4957579;28;20059;-60
2021/05/25 01:31:03;;;;;;;4.63;2.78;;;;;;;15.46;86.69;97597.47;4924920;29;20476;-60
2021/05/25 01:33:32;;;;;;;7.28;2.88;;;;;;;15.64;85.70;97609.56;4926940;29;20040;-60
2021/05/25 01:35:58;;;;;;;4.07;3.30;;;;;;;15.60;86.40;97608.72;4926476;29;20071;-60
2021/05/25 01:38:25;;;;;;;5.05;2.85;;;;;;;15.51;86.47;97615.84;4926647;29;20422;-60
2021/05/25 01:40:53;;;;;;;4.43;3.05;;;;;;;15.47;85.79;97610.25;4926705;29;20040;-60
2021/05/25 01:43:19;;;;;;;4.60;3.17;;;;;;;15.48;85.73;97594.28;4957517;28;20031;-60
2021/05/25 01:45:46;;;;;;;7.65;2.85;;;;;;;15.44;85.65;97597.09;4926354;29;20051;-60
2021/05/25 01:48:12;;;;;;;3.83;2.78;;;;;;;15.35;85.69;97596.56;4924981;29;20032;-60
2021/05/25 01:50:39;;;;;;;3.33;2.63;;;;;;;14.89;86.46;97539.63;4924889;29;20059;-60
2021/05/25 01:53:14;;;;;;;7.43;3.20;;;;;;;15.12;87.03;97598.78;4926497;29;20533;-60
2021/05/25 01:55:47;;;;;;;4.90;3.58;;;;;;;15.21;86.90;97599.25;4926491;29;20180;-61
2021/05/25 01:58:16;;;;;;;5.00;4.07;;;;;;;15.17;86.41;97607.59;4926760;29;20873;-60
2021/05/25 02:00:49;;;;;;;4.63;4.00;;;;;;;14.92;86.71;97550.00;4957357;28;20056;-60
2021/05/25 02:03:15;;;;;;;7.65;4.45;;;;;;;15.24;87.89;97595.69;4926603;29;20103;-60
2021/05/25 02:05:40;;;;;;;7.32;3.53;;;;;;;14.48;88.20;97473.94;4925008;29;20044;-60
2021/05/25 02:08:07;;;;;;;3.60;3.30;;;;;;;15.34;87.13;97589.38;4926616;29;20035;-60
2021/05/25 02:10:38;;;;;;;4.97;3.10;;;;;;;15.35;86.76;97585.41;4924666;28;20462;-60
2021/05/25 02:13:06;;;;;;;3.58;3.10;;;;;;;15.26;87.21;97598.09;4927723;29;20551;-61
2021/05/25 02:15:33;;;;;;;3.70;3.13;;;;;;;15.31;86.66;97606.09;4930665;29;20043;-60
2021/05/25 02:18:10;;;;;;;3.88;2.70;;;;;;;14.97;85.99;97538.47;4931231;29;20111;-60
2021/05/25 02:20:36;;;;;;;4.82;3.05;;;;;;;15.27;87.01;97594.91;4928455;29;20503;-61
2021/05/25 02:23:03;;;;;;;3.05;2.75;;;;;;;15.28;86.37;97596.53;4928669;28;20058;-60
2021/05/25 02:25:29;;;;;;;4.07;2.97;;;;;;;15.25;86.17;97588.13;4930005;29;20044;-60
2021/05/25 02:27:55;;;;;;;3.50;3.17;;;;;;;15.22;87.19;97592.50;4930345;29;20035;-62
2021/05/25 02:30:21;;;;;;;2.90;2.60;;;;;;;14.66;87.06;97530.63;4929508;29;20107;-61
2021/05/25 02:32:48;;;;;;;4.05;2.95;;;;;;;15.26;86.25;97601.69;4928546;29;20110;-60
2021/05/25 02:35:13;;;;;;;5.35;2.90;;;;;;;14.68;86.25;97511.53;4960322;28;20043;-61
2021/05/25 02:37:39;;;;;;;3.80;2.38;;;;;;;15.12;86.73;97601.56;4930026;29;20042;-60
2021/05/25 02:40:08;;;;;;;3.45;2.90;;;;;;;15.13;86.55;97605.97;4929613;29;20118;-61
2021/05/25 02:42:33;;;;;;;10.93;3.80;;;;;;;14.39;86.97;97490.16;4930497;28;20420;-60
2021/05/25 02:44:59;;;;;;;5.05;2.60;;;;;;;15.13;86.16;97600.38;4928318;29;20050;-61
2021/05/25 02:47:24;;;;;;;3.80;3.03;;;;;;;14.70;87.14;97564.94;4929154;29;20027;-61
2021/05/25 02:49:50;;;;;;;5.80;2.97;;;;;;;14.52;88.00;97536.09;4929828;29;20130;-62
2021/05/25 02:52:16;;;;;;;8.38;3.00;;;;;;;15.02;87.69;97605.06;4929526;29;20585;-61
2021/05/25 02:54:41;;;;;;;6.13;2.47;;;;;;;14.97;87.80;97586.69;4929898;29;20039;-62
2021/05/25 02:57:07;;;;;;;3.97;2.95;;;;;;;14.98;87.14;97576.34;4929959;29;20031;-61
2021/05/25 02:59:33;;;;;;;3.47;3.17;;;;;;;14.60;86.50;97526.59;4929988;29;20607;-60
2021/05/25 03:01:59;;;;;;;4.70;2.95;;;;;;;14.86;88.10;97604.53;4929357;29;20032;-61
2021/05/25 03:04:25;;;;;;;6.47;3.42;;;;;;;14.91;87.79;97618.94;4929209;29;20030;-60
2021/05/25 03:06:50;;;;;;;3.25;2.95;;;;;;;14.83;87.54;97608.09;4929181;29;20103;-60
2021/05/25 03:09:16;;;;;;;4.85;2.25;;;;;;;14.51;87.50;97554.00;4929567;29;20442;-60
2021/05/25 03:11:43;;;;;;;3.47;2.67;;;;;;;14.82;87.94;97596.16;4929568;29;20042;-61
2021/05/25 03:14:08;;;;;;;5.13;2.33;;;;;;;15.06;86.09;97603.13;4929524;29;20532;-60
2021/05/25 03:16:34;;;;;;;4.47;2.78;;;;;;;14.58;86.59;97512.25;4929144;29;20525;-62
2021/05/25 03:18:59;;;;;;;5.32;2.60;;;;;;;15.04;86.15;97574.81;4959835;28;20032;-60
2021/05/25 03:21:25;;;;;;;6.00;2.65;;;;;;;15.22;84.63;97597.28;4928883;29;20479;-61
2021/05/25 03:23:51;;;;;;;4.72;2.60;;;;;;;14.81;85.37;97560.28;4927395;29;20088;-61
2021/05/25 03:26:16;;;;;;;3.55;2.30;;;;;;;14.97;85.70;97591.47;4928971;29;20437;-62
2021/05/25 03:28:42;;;;;;;2.60;2.00;;;;;;;15.07;85.54;97619.47;4928036;29;20167;-61
2021/05/25 03:31:07;;;;;;;5.38;3.50;;;;;;;15.15;84.92;97614.75;4927052;29;20396;-61
2021/05/25 03:33:34;;;;;;;4.10;2.60;;;;;;;15.14;83.92;97613.94;4929023;29;20146;-60
2021/05/25 03:36:00;;;;;;;3.42;2.35;;;;;;;14.68;83.97;97533.84;4928925;29;20047;-60
2021/05/25 03:38:25;;;;;;;2.63;2.42;;;;;;;15.15;84.71;97614.75;4927204;29;20036;-61
2021/05/25 03:40:51;;;;;;;4.55;2.97;;;;;;;15.14;85.45;97615.97;4928640;29;20055;-61
2021/05/25 03:43:17;;;;;;;5.32;3.33;;;;;;;15.41;84.82;97611.81;4959439;28;20130;-61
2021/05/25 03:45:42;;;;;;;2.58;2.38;;;;;;;15.51;84.01;97613.88;4928397;29;20542;-61
2021/05/25 03:48:08;;;;;;;6.68;2.47;;;;;;;15.64;83.23;97603.97;4927257;29;20040;-61
2021/05/25 03:50:34;;;;;;;4.43;2.10;;;;;;;15.80;82.70;97607.28;4944463;29;20051;-60
2021/05/25 03:52:59;;;;;;;4.38;2.47;;;;;;;15.98;81.50;97596.97;4928701;29;20038;-63
2021/05/25 04:01:09;;;;;;;3.60;2.10;;;;;;;16.30;79.61;97595.13;4928149;29;20423;-61
2021/05/25 04:03:35;;;;;;;5.88;2.30;;;;;;;16.00;79.10;97538.69;4928821;29;20027;-62
2021/05/25 04:06:00;;;;;;;7.38;2.50;;;;;;;16.35;79.59;97582.75;4928194;29;20044;-64
2021/05/25 04:08:26;;;;;;;4.18;2.95;;;;;;;16.39;78.84;97561.97;4958947;28;20510;-62
2021/05/25 04:10:51;;;;;;;1.90;1.80;;;;;;;16.49;79.11;97578.03;4926667;29;20046;-62
2021/05/25 04:13:17;;;;;;;3.42;2.42;;;;;;;16.35;80.06;97588.34;4958857;28;20119;-62
2021/05/25 04:15:48;;;;;;;2.17;1.98;;;;;;;16.41;78.68;97568.00;4928018;29;20459;-62
2021/05/25 04:18:15;;;;;;;5.00;2.13;;;;;;;16.78;78.20;97589.25;4928124;29;20114;-63
2021/05/25 04:20:40;;;;;;;3.90;2.42;;;;;;;17.02;77.17;97582.91;4927796;29;20086;-63
2021/05/25 04:23:06;;;;;;;3.35;2.45;;;;;;;17.21;76.45;97596.50;4926344;29;20031;-61
2021/05/25 04:25:31;;;;;;;5.28;2.67;;;;;;;16.82;76.27;97517.34;4926292;29;20263;-64
2021/05/25 04:27:58;;;;;;;4.28;2.70;;;;;;;17.47;75.69;97587.69;4928367;29;20035;-62
2021/05/25 04:30:24;;;;;;;4.78;2.08;;;;;;;17.63;74.51;97590.88;4927979;29;20110;-61
2021/05/25 04:32:50;;;;;;;5.40;2.67;;;;;;;17.91;73.52;97599.22;4928042;29;20053;-61
2021/05/25 04:35:16;;;;;;;3.20;2.60;;;;;;;18.01;73.18;97595.59;4926736;29;20043;-60
2021/05/25 04:37:42;;;;;;;7.53;3.20;;;;;;;17.83;71.75;97553.59;4926229;29;20050;-59
2021/05/25 04:40:08;;;;;;;8.05;3.22;;;;;;;18.01;72.31;97601.19;4925949;29;20043;-61
2021/05/25 04:42:33;;;;;;;3.83;3.00;;;;;;;18.08;72.24;97598.38;4927705;29;20138;-62
2021/05/25 04:44:59;;;;;;;8.32;3.70;;;;;;;18.17;72.19;97601.56;4927915;29;20044;-61
2021/05/25 04:47:24;;;;;;;6.15;3.28;;;;;;;18.20;71.63;97600.72;4927028;29;20028;-60
2021/05/25 04:49:50;;;;;;;4.90;3.67;;;;;;;18.00;72.59;97597.59;4927861;29;20573;-61
2021/05/25 04:52:15;;;;;;;5.70;3.22;;;;;;;18.29;71.56;97591.91;4927514;29;20035;-61
2021/05/25 04:54:41;;;;;;;7.82;2.83;;;;;;;18.35;71.38;97593.88;4958287;28;20039;-60
2021/05/25 04:57:07;;;;;;;8.65;3.20;;;;;;;18.02;70.19;97513.06;4957985;28;20497;-61
2021/05/25 04:59:32;;;;;;;6.10;3.10;;;;;;;18.70;69.67;97576.84;4926194;29;20510;-62
2021/05/25 05:01:58;;;;;;;8.10;4.00;;;;;;;18.73;70.90;97587.25;4926125;29;20043;-60
2021/05/25 05:04:23;;;;;;;5.88;3.30;;;;;;;18.72;69.96;97574.44;4927610;29;20031;-62
2021/05/25 05:06:49;;;;;;;5.28;3.35;;;;;;;18.93;70.81;97584.72;4927698;29;20122;-62
2021/05/25 05:09:14;;;;;;;9.77;4.55;;;;;;;18.06;73.28;97519.47;4927803;29;20036;-61
2021/05/25 05:11:41;;;;;;;7.78;3.63;;;;;;;17.64;71.43;97441.97;4927428;29;20619;-60
2021/05/25 05:14:06;;;;;;;10.52;4.28;;;;;;;18.94;70.25;97592.75;4927187;29;20048;-60
2021/05/25 05:16:32;;;;;;;5.25;3.25;;;;;;;19.18;69.12;97600.19;4925269;29;20074;-60
2021/05/25 05:18:57;;;;;;;4.90;3.10;;;;;;;19.28;68.30;97596.50;4927376;29;20044;-61
2021/05/25 05:21:23;;;;;;;5.85;4.22;;;;;;;19.11;67.48;97534.84;4927291;29;20567;-60
2021/05/25 05:23:48;;;;;;;9.50;3.80;;;;;;;19.14;68.42;97550.88;4957638;28;20036;-60
2021/05/25 05:26:14;;;;;;;7.32;3.38;;;;;;;19.55;69.32;97600.28;4927027;29;20481;-62
2021/05/25 05:28:40;;;;;;;17.45;4.43;;;;;;;19.65;67.75;97592.19;4927265;29;20937;-60
2021/05/25 05:31:05;;;;;;;3.28;2.58;;;;;;;20.04;66.26;97606.63;4924788;29;20066;-62
2021/05/25 05:33:31;;;;;;;5.22;3.13;;;;;;;19.37;66.35;97498.50;4926983;29;20458;-64
2021/05/25 05:35:56;;;;;;;6.97;3.13;;;;;;;20.35;65.92;97603.47;4927081;29;20047;-62
2021/05/25 05:38:25;;;;;;;4.28;2.65;;;;;;;20.50;64.09;97599.25;4957599;28;20514;-61
2021/05/25 05:40:51;;;;;;;6.18;3.10;;;;;;;20.56;65.10;97603.22;4921833;29;20042;-62
2021/05/25 05:43:20;;;;;;;3.13;2.83;;;;;;;20.28;64.10;97530.38;4929668;28;20035;-65
2021/05/25 05:45:46;;;;;;;5.68;2.85;;;;;;;20.83;63.94;97597.59;4915094;29;20569;-69
2021/05/25 05:48:11;;;;;;;4.43;2.58;;;;;;;20.42;62.61;97512.53;4931872;29;20031;-60
2021/05/25 05:50:37;;;;;;;4.68;2.53;;;;;;;20.92;63.29;97592.22;4932877;29;20071;-63
2021/05/25 05:53:03;;;;;;;5.15;2.28;;;;;;;21.14;61.45;97604.81;4945717;29;20562;-64
2021/05/25 05:55:28;;;;;;;3.72;2.50;;;;;;;21.29;58.96;97594.91;4929883;28;20047;-62
2021/05/25 05:57:54;;;;;;;6.28;2.33;;;;;;;19.94;61.26;97526.78;4940795;29;20031;-62
2021/05/25 06:00:20;;;;;;;4.68;2.53;;;;;;;20.86;59.99;97537.59;4939517;28;20047;-61
2021/05/25 06:02:45;;;;;;;2.50;2.28;;;;;;;21.65;57.56;97589.47;4925628;29;20043;-58
2021/05/25 06:05:11;;;;;;;3.47;2.00;;;;;;;21.31;54.97;97496.63;4907350;29;20099;-60
2021/05/25 06:07:37;;;;;;;3.22;2.25;;;;;;;21.98;55.51;97586.44;4916643;29;20032;-65
2021/05/25 06:10:05;;;;;;;3.45;2.90;;;;;;;22.21;53.82;97582.75;4924775;29;20047;-64
2021/05/25 06:12:30;;;;;;;3.00;2.10;;;;;;;22.18;53.16;97578.78;4922586;29;20032;-63
2021/05/25 06:14:55;;;;;;;3.28;2.45;;;;;;;21.81;52.14;97497.31;4907633;29;20123;-64
2021/05/25 06:17:21;;;;;;;3.10;2.22;;;;;;;22.51;51.56;97576.09;4919741;29;20427;-64
2021/05/25 06:19:47;;;;;;;3.45;1.92;;;;;;;21.87;51.15;97478.66;4910082;29;20047;-62
2021/05/25 06:22:13;;;;;;;3.70;2.25;;;;;;;22.29;51.88;97579.38;4912344;29;20534;-61
2021/05/25 06:24:38;;;;;;;2.15;1.80;;;;;;;21.87;51.39;97506.88;4921120;29;20135;-64
2021/05/25 06:27:04;;;;;;;2.90;2.00;;;;;;;20.22;52.44;97278.06;4921992;29;20124;-60
2021/05/25 06:29:30;;;;;;;2.40;2.20;;;;;;;22.06;52.74;97582.25;4918721;29;20095;-60
2021/05/25 06:32:02;;;;;;;4.95;2.70;;;;;;;21.46;51.99;97419.03;4924953;29;20048;-62
2021/05/25 06:34:28;;;;;;;6.28;4.22;;;;;;;22.21;51.97;97504.53;4933659;29;20039;-61
2021/05/25 06:36:55;;;;;;;2.20;2.00;;;;;;;22.60;50.82;97469.00;4923147;29;20495;-65
2021/05/25 06:39:21;;;;;;;6.10;2.47;;;;;;;22.97;51.39;97550.47;4919253;29;20115;-68
2021/05/25 06:41:47;;;;;;;2.38;2.10;;;;;;;23.16;49.61;97493.03;4907163;29;20410;-61
2021/05/25 06:44:12;;;;;;;3.90;2.53;;;;;;;24.06;48.93;97576.78;4916860;29;20100;-62
2021/05/25 06:46:37;;;;;;;5.75;2.70;;;;;;;23.46;48.82;97558.53;4913441;29;20111;-69
2021/05/25 06:49:03;;;;;;;6.53;2.28;;;;;;;22.53;53.10;97559.53;4918804;29;20093;-64
2021/05/25 06:51:28;;;;;;;8.52;2.97;;;;;;;22.98;50.59;97569.81;4912637;29;20032;-71
2021/05/25 06:53:54;;;;;;;7.57;2.53;;;;;;;21.64;51.80;97526.59;4911644;29;20067;-62
2021/05/25 06:56:20;;;;;;;10.32;3.13;;;;;;;22.05;53.28;97569.38;4931878;29;20039;-61
2021/05/25 06:58:46;;;;;;;13.40;5.00;;;;;;;21.45;51.70;97392.03;4938431;28;20468;-65
2021/05/25 07:01:11;;;;;;;13.52;6.95;;;;;;;22.66;50.61;97552.00;4929198;29;20047;-66
2021/05/25 07:03:37;;;;;;;8.40;5.18;;;;;;;20.92;52.12;97389.44;4929718;29;20558;-64
2021/05/25 07:06:02;;;;;;;13.50;6.57;;;;;;;22.07;51.07;97521.75;4929362;29;20043;-65
2021/05/25 07:08:28;;;;;;;4.82;2.45;;;;;;;22.56;51.49;97541.75;4929061;29;20032;-63
2021/05/25 07:10:53;;;;;;;6.72;2.60;;;;;;;21.96;52.41;97549.41;4928820;29;20499;-65
2021/05/25 07:13:18;;;;;;;11.98;6.03;;;;;;;21.77;53.77;97543.72;4927711;29;20558;-66
2021/05/25 07:15:44;;;;;;;8.77;4.13;;;;;;;21.71;53.28;97526.50;4943154;29;20039;-65
2021/05/25 07:18:09;;;;;;;11.10;6.35;;;;;;;20.82;54.88;97424.19;4927646;29;20537;-61
2021/05/25 07:20:35;;;;;;;6.25;3.53;;;;;;;21.48;53.60;97405.28;4929023;29;20515;-65
2021/05/25 07:23:00;;;;;;;4.38;2.28;;;;;;;21.39;53.67;97472.72;4922974;29;20514;-66
2021/05/25 07:25:28;;;;;;;3.28;1.92;;;;;;;21.88;55.23;97547.94;4930973;29;20047;-61
2021/05/25 07:27:55;;;;;;;3.45;2.30;;;;;;;21.84;54.11;97485.16;4928458;29;20070;-65
2021/05/25 07:30:21;;;;;;;5.97;2.50;;;;;;;21.32;55.81;97515.13;4934897;28;20656;-59
2021/05/25 07:32:47;;;;;;;4.10;2.55;;;;;;;21.22;56.08;97504.84;4936501;28;20039;-63
2021/05/25 07:35:13;;;;;;;7.72;3.47;;;;;;;21.26;56.12;97428.69;4941281;29;20403;-60
2021/05/25 07:37:40;;;;;;;2.90;2.58;;;;;;;22.46;53.79;97509.66;4966169;28;20095;-70
2021/05/25 07:40:07;;;;;;;8.98;4.25;;;;;;;22.23;54.11;97535.94;4925843;29;20040;-63
2021/05/25 07:42:33;;;;;;;3.83;2.28;;;;;;;21.16;53.94;97337.50;4923705;28;20496;-61
2021/05/25 07:44:58;;;;;;;6.55;2.90;;;;;;;22.02;54.74;97530.72;4890169;28;20059;-61
2021/05/25 07:47:26;;;;;;;3.85;2.22;;;;;;;21.52;55.04;97575.19;4927729;28;20535;-65
2021/05/25 07:49:52;;;;;;;4.40;2.53;;;;;;;22.05;56.27;97529.09;4897207;28;23925;-59
2021/05/25 07:52:18;;;;;;;4.70;2.70;;;;;;;22.99;52.21;97528.19;4888795;29;20032;-59
2021/05/25 07:54:44;;;;;;;2.42;2.22;;;;;;;22.74;51.88;97489.25;4898381;29;20735;-64
2021/05/25 07:57:09;;;;;;;7.90;3.72;;;;;;;20.50;51.46;97108.72;4894481;28;20040;-58
2021/05/25 07:59:36;;;;;;;6.60;3.80;;;;;;;23.50;49.61;97510.38;4889925;29;20502;-66
2021/05/25 08:02:01;;;;;;;4.68;3.33;;;;;;;22.84;50.57;97363.09;4890400;29;20039;-59
2021/05/25 08:04:27;;;;;;;10.70;5.20;;;;;;;23.35;52.26;97504.28;4885013;29;20071;-58
2021/05/25 08:06:52;;;;;;;5.50;4.38;;;;;;;23.36;49.91;97482.47;4895174;29;20597;-64
2021/05/25 08:09:18;;;;;;;6.38;2.92;;;;;;;22.74;52.86;97485.63;4898710;29;20891;-64
2021/05/25 08:11:43;;;;;;;4.20;2.80;;;;;;;22.60;53.30;97515.00;4888392;29;20423;-57
2021/05/25 08:14:10;;;;;;;4.10;3.10;;;;;;;23.29;50.85;97567.47;4896453;29;20456;-64
2021/05/25 08:16:38;;;;;;;6.10;3.00;;;;;;;22.86;52.17;97511.16;4883963;29;20396;-64
2021/05/25 08:19:25;;;;;;;6.72;2.85;;;;;;;22.17;52.09;97359.88;4921052;28;20047;-62
2021/05/25 08:21:50;;;;;;;3.60;2.50;;;;;;;22.29;54.87;97513.63;4913042;29;20724;-61
2021/05/25 08:24:16;;;;;;;2.72;2.53;;;;;;;22.43;55.11;97516.94;4896920;29;20031;-66
2021/05/25 08:26:42;;;;;;;5.53;2.90;;;;;;;20.41;54.73;97190.91;4895567;29;20028;-67
2021/05/25 08:29:07;;;;;;;3.20;2.90;;;;;;;22.86;54.78;97501.91;4894209;29;20495;-60
2021/05/25 08:31:33;;;;;;;5.75;2.65;;;;;;;22.51;54.47;97415.16;4881597;29;20063;-66
2021/05/25 08:34:00;;;;;;;3.67;2.72;;;;;;;21.15;53.64;97189.38;4888881;29;20040;-70
2021/05/25 08:36:26;;;;;;;4.70;2.90;;;;;;;23.48;54.24;97495.88;4899105;29;20051;-69
2021/05/25 08:38:51;;;;;;;6.10;2.65;;;;;;;23.43;53.07;97500.03;4906762;29;20036;-61
2021/05/25 08:41:17;;;;;;;5.55;3.20;;;;;;;23.63;52.67;97485.78;4924526;28;20920;-60
2021/05/25 08:43:43;;;;;;;4.10;2.70;;;;;;;23.80;51.98;97495.81;4897758;29;20047;-59
2021/05/25 08:46:08;;;;;;;3.53;2.65;;;;;;;24.29;50.84;97493.59;4927546;29;20047;-63
2021/05/25 08:48:41;;;;;;;3.50;2.42;;;;;;;24.49;49.90;97480.03;4926325;29;20122;-62
2021/05/25 08:51:08;;;;;;;8.27;3.42;;;;;;;24.11;49.32;97369.56;4927372;28;20482;-67
2021/05/25 08:53:33;;;;;;;3.55;2.75;;;;;;;25.15;48.21;97494.91;4925309;29;20111;-62
2021/05/25 08:55:59;;;;;;;2.88;2.63;;;;;;;25.18;48.30;97488.34;4940633;29;20049;-63
2021/05/25 08:58:25;;;;;;;3.85;2.75;;;;;;;25.46;46.88;97451.75;4945788;28;20166;-62
2021/05/25 09:00:53;;;;;;;5.95;3.28;;;;;;;25.75;47.70;97486.41;4931577;28;20118;-62
2021/05/25 09:03:19;;;;;;;3.10;2.70;;;;;;;25.16;47.36;97416.31;4912646;29;20047;-63
2021/05/25 09:05:52;;;;;;;3.30;2.70;;;;;;;25.39;46.38;97398.91;4921409;29;20039;-64
2021/05/25 09:08:17;;;;;;;3.20;2.90;;;;;;;25.43;47.81;97475.38;4909594;29;20459;-64
2021/05/25 09:10:50;;;;;;;4.55;3.67;;;;;;;25.11;46.80;97392.19;4908107;29;20044;-63
2021/05/25 09:13:17;;;;;;;3.10;2.83;;;;;;;24.45;48.58;97417.84;4908300;29;20071;-61
2021/05/25 09:15:49;;;;;;;3.35;3.05;;;;;;;25.15;47.86;97415.50;4922140;29;20135;-63
2021/05/25 09:18:22;;;;;;;3.78;2.55;;;;;;;25.97;46.58;97467.34;4909071;29;20104;-61
2021/05/25 09:20:51;;;;;;;4.35;3.90;;;;;;;25.81;46.56;97377.50;4907905;29;20036;-61
2021/05/25 09:23:22;;;;;;;2.97;2.72;;;;;;;25.92;45.77;97396.94;4907802;29;20091;-64
2021/05/25 09:25:52;;;;;;;3.25;3.00;;;;;;;25.18;47.46;97462.81;4918778;29;20043;-61
2021/05/25 09:28:19;;;;;;;4.18;3.00;;;;;;;25.07;47.79;97397.16;4917862;29;20048;-60
2021/05/25 09:30:47;;;;;;;3.30;2.92;;;;;;;24.82;48.76;97465.25;4921823;29;20504;-64
2021/05/25 09:33:14;;;;;;;3.03;2.75;;;;;;;24.80;49.11;97399.72;4907698;29;20055;-67
2021/05/25 09:35:43;;;;;;;5.07;3.03;;;;;;;25.15;48.67;97418.34;4920877;29;20514;-65
2021/05/25 09:38:12;;;;;;;4.93;3.65;;;;;;;25.01;49.82;97432.22;4943433;29;20525;-65
2021/05/25 09:40:40;;;;;;;5.43;4.15;;;;;;;25.30;49.04;97433.63;4945109;28;20407;-63
2021/05/25 09:43:23;;;;;;;3.90;3.25;;;;;;;25.07;49.30;97431.19;4943936;29;20470;-60
2021/05/25 09:45:55;;;;;;;4.27;3.10;;;;;;;25.39;47.47;97435.00;4943885;29;20062;-64
2021/05/25 09:48:25;;;;;;;4.60;3.20;;;;;;;25.16;48.56;97428.47;4945528;28;20470;-65
2021/05/25 09:50:50;;;;;;;3.85;3.55;;;;;;;25.38;48.68;97410.72;4935217;28;20046;-66
2021/05/25 09:53:23;;;;;;;5.13;4.00;;;;;;;25.63;48.71;97421.97;4926673;29;20035;-67
2021/05/25 09:55:52;;;;;;;13.73;7.80;;;;;;;26.00;46.32;97427.50;4926275;29;20094;-64
2021/05/25 09:58:21;;;;;;;18.20;9.65;;;;;;;26.40;46.17;97416.97;4926874;29;20303;-66
2021/05/25 10:00:47;;;;;;;3.50;3.20;;;;;;;26.77;46.57;97403.75;4956718;28;20561;-63
2021/05/25 10:03:17;;;;;;;4.22;3.33;;;;;;;27.16;44.47;97402.13;4926381;29;20031;-61
2021/05/25 10:05:45;;;;;;;4.47;4.15;;;;;;;27.30;44.15;97390.91;4924439;29;20526;-63
2021/05/25 10:08:13;;;;;;;3.35;3.05;;;;;;;26.27;45.58;97344.50;4956902;28;20450;-68
2021/05/25 10:10:40;;;;;;;6.60;4.22;;;;;;;26.96;45.18;97371.25;4926323;29;20118;-65
2021/05/25 10:13:06;;;;;;;4.10;3.22;;;;;;;26.93;42.16;97249.13;4926781;29;20065;-64
2021/05/25 10:15:31;;;;;;;3.53;3.22;;;;;;;27.18;43.47;97397.53;4924786;29;20146;-60
2021/05/25 10:20:25;;;;;;;4.10;3.80;;;;;;;27.42;43.92;97387.16;4926245;29;20035;-66
2021/05/25 10:22:50;;;;;;;7.70;3.90;;;;;;;26.02;47.80;97387.28;4926841;29;20032;-64
2021/05/25 10:25:17;;;;;;;5.30;3.35;;;;;;;25.61;47.38;97384.75;4926362;29;20079;-66
2021/05/25 10:27:47;;;;;;;4.22;3.92;;;;;;;25.79;47.20;97336.63;4924851;29;20047;-64
2021/05/25 10:30:22;;;;;;;7.80;3.85;;;;;;;25.86;48.08;97378.94;4925255;29;20086;-65
2021/05/25 10:32:48;;;;;;;7.80;4.40;;;;;;;26.04;48.15;97379.88;4926049;29;20079;-62
2021/05/25 10:35:18;;;;;;;4.55;3.42;;;;;;;26.04;45.63;97311.72;4927474;29;20060;-64
2021/05/25 10:38:02;;;;;;;5.22;3.28;;;;;;;26.19;47.55;97386.56;4940804;29;20186;-66
2021/05/25 10:40:39;;;;;;;6.40;3.45;;;;;;;26.45;47.44;97387.16;4946898;29;20035;-64
2021/05/25 10:43:35;;;;;;;3.47;3.17;;;;;;;26.03;47.29;97371.81;4947357;28;20043;-65
2021/05/25 10:46:10;;;;;;;4.18;3.75;;;;;;;25.99;47.71;97376.78;4945084;29;20413;-65
2021/05/25 10:48:48;;;;;;;4.80;3.60;;;;;;;26.81;45.61;97375.19;4945516;29;20486;-65
2021/05/25 10:51:14;;;;;;;3.78;3.47;;;;;;;26.41;46.44;97364.56;4937312;28;20050;-62
2021/05/25 10:53:39;;;;;;;6.03;3.92;;;;;;;26.72;46.84;97327.59;4929780;29;20032;-63
2021/05/25 10:56:25;;;;;;;3.60;3.25;;;;;;;26.27;47.49;97370.06;4928086;29;20047;-61
2021/05/25 10:59:04;;;;;;;5.70;3.90;;;;;;;26.71;46.86;97360.91;4929814;29;20513;-61
2021/05/25 11:01:30;;;;;;;4.15;3.85;;;;;;;27.27;45.63;97363.41;4929410;29;20451;-61
2021/05/25 11:04:10;;;;;;;5.35;4.03;;;;;;;26.49;46.34;97257.13;4929937;29;20138;-62
2021/05/25 11:06:37;;;;;;;4.30;3.88;;;;;;;27.92;43.76;97340.94;4955930;28;20397;-69
2021/05/25 11:09:21;;;;;;;4.28;3.38;;;;;;;27.35;43.64;97359.00;4922811;29;20106;-62
2021/05/25 11:11:47;;;;;;;4.22;3.50;;;;;;;25.11;45.30;97111.47;4942620;28;20536;-67
2021/05/25 11:14:13;;;;;;;5.35;3.40;;;;;;;26.53;45.39;97286.94;4928013;29;20039;-63
2021/05/25 11:16:40;;;;;;;4.68;3.92;;;;;;;26.62;46.38;97368.59;4925023;28;20621;-64
2021/05/25 11:24:46;;;;;;;6.20;3.35;;;;;;;27.75;43.52;97347.44;4930108;29;20168;-62
2021/05/25 11:27:13;;;;;;;4.20;3.72;;;;;;;27.05;45.02;97339.97;4912032;29;20515;-63
2021/05/25 11:29:51;;;;;;;4.75;3.67;;;;;;;26.85;46.29;97342.47;4910585;29;20542;-63
2021/05/25 11:32:22;;;;;;;3.70;3.38;;;;;;;26.53;47.50;97360.03;4919960;29;20082;-60
2021/05/25 11:34:57;;;;;;;4.53;3.40;;;;;;;26.80;46.13;97343.09;4923190;28;20122;-62
2021/05/25 11:37:24;;;;;;;6.32;4.90;;;;;;;26.68;46.00;97338.34;4932353;29;20067;-58
2021/05/25 11:39:51;;;;;;;8.13;5.07;;;;;;;26.46;47.24;97303.53;4920221;28;20036;-62
2021/05/25 11:42:22;;;;;;;7.50;4.75;;;;;;;26.49;47.50;97319.63;4924926;29;20617;-66
2021/05/25 11:44:47;;;;;;;4.03;3.58;;;;;;;26.91;46.18;97323.53;4928295;29;20055;-66
2021/05/25 11:47:14;;;;;;;7.07;4.07;;;;;;;25.91;48.84;97313.81;4927534;29;20035;-63